CheckWX is a tool to help pilots better visualize weather data.  It is not intended as a substitute for an official pre-flight weather briefing.

02:48:00 UTC

KGFK TAF
Grand Forks International Airport
Grand Forks, North Dakota, USA
KGFK 210101Z 2101/2124 19017G27KT 6SM TSRA SCT045CB BKN100 TEMPO 2101/2102 20030G50KT 3SM TSRA SQ BKN025CB FM210600 20007KT 6SM TSRA OVC035CB FM211000 18007KT P6SM VCSH OVC020 FM212200 28014G23KT P6SM VCSH BKN070

Sep-21@
01:00 UTC

Sep-21 @ 01:00 UTC

Sep-21@
06:00 UTC

Sep-21 @ 06:00 UTC

KGFK 210101Z 2101/2124 19017G27KT 6SM TSRA SCT045CB BKN100
Wind
  • 190° at 17 KTS
  • {Gusting to 27 KTS
Conditions
Thunderstorm, Rain
Cloud Levels
  • Scattered at 4,500' AGL
  • Broken at 10,000' AGL

Sep-21@
01:00 UTC

Sep-21 @ 01:00 UTC

Sep-21@
02:00 UTC

Sep-21 @ 02:00 UTC

TEMPO 2101/2102 20030G50KT 3SM TSRA SQ BKN025CB

Expired

Wind
  • 200° at 30 KTS
  • {Gusting to 50 KTS
Conditions
Thunderstorm, Rain, Squalls
Cloud Levels
  • Broken at 2,500' AGL

Sep-21@
06:00 UTC

Sep-21 @ 06:00 UTC

Sep-21@
10:00 UTC

Sep-21 @ 10:00 UTC

FM210600 20007KT 6SM TSRA OVC035CB

From

From Standard forecast or significant change

Wind
  • 200° at 7 KTS
Conditions
Thunderstorm, Rain
Cloud Levels
  • Overcast at 3,500' AGL

Sep-21@
10:00 UTC

Sep-21 @ 10:00 UTC

Sep-21@
22:00 UTC

Sep-21 @ 22:00 UTC

FM211000 18007KT P6SM VCSH OVC020

From

From Standard forecast or significant change

Wind
  • 180° at 7 KTS
Cloud Levels
  • Overcast at 2,000' AGL

Sep-21@
22:00 UTC

Sep-21 @ 22:00 UTC

Sep-22@
00:00 UTC

Sep-22 @ 00:00 UTC

FM212200 28014G23KT P6SM VCSH BKN070

From

From Standard forecast or significant change

Wind
  • 280° at 14 KTS
  • {Gusting to 23 KTS
Cloud Levels
  • Broken at 7,000' AGL